Attica, Indiana
Current Conditions -  °F | °C
As of 4:54 AM on Saturday 22 Nov 2014 (Local Time) from KLAF Reporting Station
Overcast Overcast  
Wind Chill: 30°   Ceiling: 4700
Heat Index: 36°   Visibility: 10mi
Dew Point: 31°   Wind: 8mph
Humidity: 82%   Direction: 190°S
Pressure: 30.17"   Gusts: NA
Location:  40.29°N, 87.25°W
Report Text: KLAF 220954Z AUTO 19007KT 10SM OVC047 02/M01 A3017 RMK AO2 RAE18 SLP220 P0002 T00221006 TSNO
Loading
Personal Weather Stations






























Interactive Weather Map New forecast layout! Learn more

10-Day Weather Forecast

Advertisements
Track Severe Weather on mobile